sensor_id;sensor_type;location;lat;lon;timestamp;P1;durP1;ratioP1;P2;durP2;ratioP2
13349;SDS011;6744;53.190;6.576;2022-10-16T00:01:16;4.90;;;1.67;;
13349;SDS011;6744;53.190;6.576;2022-10-16T00:03:43;5.17;;;1.60;;
13349;SDS011;6744;53.190;6.576;2022-10-16T00:06:09;4.57;;;1.60;;
13349;SDS011;6744;53.190;6.576;2022-10-16T00:08:36;5.10;;;1.70;;
13349;SDS011;6744;53.190;6.576;2022-10-16T00:11:06;6.80;;;1.63;;
13349;SDS011;6744;53.190;6.576;2022-10-16T00:13:36;4.57;;;1.40;;
13349;SDS011;6744;53.190;6.576;2022-10-16T00:16:03;4.30;;;1.60;;
13349;SDS011;6744;53.190;6.576;2022-10-16T00:18:29;4.43;;;1.70;;
13349;SDS011;6744;53.190;6.576;2022-10-16T00:20:54;4.30;;;1.33;;
13349;SDS011;6744;53.190;6.576;2022-10-16T00:23:20;4.50;;;1.60;;
13349;SDS011;6744;53.190;6.576;2022-10-16T00:25:54;7.47;;;1.77;;
13349;SDS011;6744;53.190;6.576;2022-10-16T00:28:21;3.13;;;1.27;;
13349;SDS011;6744;53.190;6.576;2022-10-16T00:30:46;3.13;;;1.37;;
13349;SDS011;6744;53.190;6.576;2022-10-16T00:33:11;4.80;;;1.53;;
13349;SDS011;6744;53.190;6.576;2022-10-16T00:35:37;4.87;;;1.60;;
13349;SDS011;6744;53.190;6.576;2022-10-16T00:38:02;3.57;;;1.30;;
13349;SDS011;6744;53.190;6.576;2022-10-16T00:40:27;5.07;;;1.40;;
13349;SDS011;6744;53.190;6.576;2022-10-16T00:42:53;4.00;;;1.30;;
13349;SDS011;6744;53.190;6.576;2022-10-16T00:45:18;3.03;;;1.37;;
13349;SDS011;6744;53.190;6.576;2022-10-16T00:47:44;2.40;;;1.13;;
13349;SDS011;6744;53.190;6.576;2022-10-16T00:50:33;3.70;;;1.30;;
13349;SDS011;6744;53.190;6.576;2022-10-16T00:52:59;5.67;;;1.47;;
13349;SDS011;6744;53.190;6.576;2022-10-16T00:55:26;3.50;;;1.23;;
13349;SDS011;6744;53.190;6.576;2022-10-16T00:57:53;4.70;;;1.57;;
13349;SDS011;6744;53.190;6.576;2022-10-16T01:00:20;2.83;;;1.30;;
13349;SDS011;6744;53.190;6.576;2022-10-16T01:05:20;3.43;;;1.30;;
13349;SDS011;6744;53.190;6.576;2022-10-16T01:07:51;5.60;;;1.20;;
13349;SDS011;6744;53.190;6.576;2022-10-16T01:10:27;2.67;;;1.43;;
13349;SDS011;6744;53.190;6.576;2022-10-16T01:13:07;3.87;;;1.37;;
13349;SDS011;6744;53.190;6.576;2022-10-16T01:18:26;4.10;;;1.23;;
13349;SDS011;6744;53.190;6.576;2022-10-16T01:21:10;3.13;;;1.30;;
13349;SDS011;6744;53.190;6.576;2022-10-16T01:23:55;3.33;;;1.20;;
13349;SDS011;6744;53.190;6.576;2022-10-16T01:29:24;4.23;;;1.23;;
13349;SDS011;6744;53.190;6.576;2022-10-16T01:32:02;5.83;;;1.30;;
13349;SDS011;6744;53.190;6.576;2022-10-16T01:34:33;4.13;;;1.23;;
13349;SDS011;6744;53.190;6.576;2022-10-16T01:37:05;4.33;;;1.53;;
13349;SDS011;6744;53.190;6.576;2022-10-16T01:39:35;5.10;;;1.53;;
13349;SDS011;6744;53.190;6.576;2022-10-16T01:42:22;3.53;;;1.27;;
13349;SDS011;6744;53.190;6.576;2022-10-16T01:44:49;4.47;;;1.53;;
13349;SDS011;6744;53.190;6.576;2022-10-16T01:47:16;3.00;;;1.40;;
13349;SDS011;6744;53.190;6.576;2022-10-16T01:49:42;3.23;;;1.27;;
13349;SDS011;6744;53.190;6.576;2022-10-16T01:52:10;5.87;;;1.50;;
13349;SDS011;6744;53.190;6.576;2022-10-16T01:54:39;3.93;;;1.40;;
13349;SDS011;6744;53.190;6.576;2022-10-16T01:57:06;3.13;;;1.20;;
13349;SDS011;6744;53.190;6.576;2022-10-16T01:59:32;3.80;;;1.30;;
13349;SDS011;6744;53.190;6.576;2022-10-16T02:02:01;4.30;;;1.40;;
13349;SDS011;6744;53.190;6.576;2022-10-16T02:04:32;4.40;;;1.30;;
13349;SDS011;6744;53.190;6.576;2022-10-16T02:06:59;5.17;;;1.70;;
13349;SDS011;6744;53.190;6.576;2022-10-16T02:09:25;3.67;;;1.60;;
13349;SDS011;6744;53.190;6.576;2022-10-16T02:11:51;3.33;;;1.40;;
13349;SDS011;6744;53.190;6.576;2022-10-16T02:14:18;4.10;;;1.43;;
13349;SDS011;6744;53.190;6.576;2022-10-16T02:16:45;2.57;;;1.30;;
13349;SDS011;6744;53.190;6.576;2022-10-16T02:19:15;4.23;;;1.37;;
13349;SDS011;6744;53.190;6.576;2022-10-16T02:24:22;4.10;;;1.40;;
13349;SDS011;6744;53.190;6.576;2022-10-16T02:27:11;3.03;;;1.40;;
13349;SDS011;6744;53.190;6.576;2022-10-16T02:33:09;3.90;;;1.63;;
13349;SDS011;6744;53.190;6.576;2022-10-16T02:35:36;4.63;;;1.20;;
13349;SDS011;6744;53.190;6.576;2022-10-16T02:38:02;4.27;;;1.40;;
13349;SDS011;6744;53.190;6.576;2022-10-16T02:40:28;3.63;;;1.30;;
13349;SDS011;6744;53.190;6.576;2022-10-16T02:42:54;3.30;;;1.10;;
13349;SDS011;6744;53.190;6.576;2022-10-16T02:45:20;3.37;;;1.33;;
13349;SDS011;6744;53.190;6.576;2022-10-16T02:47:46;2.13;;;1.10;;
13349;SDS011;6744;53.190;6.576;2022-10-16T02:50:11;3.33;;;1.40;;
13349;SDS011;6744;53.190;6.576;2022-10-16T02:52:37;4.07;;;1.17;;
13349;SDS011;6744;53.190;6.576;2022-10-16T02:55:02;3.43;;;1.10;;
13349;SDS011;6744;53.190;6.576;2022-10-16T02:57:28;2.90;;;1.40;;
13349;SDS011;6744;53.190;6.576;2022-10-16T02:59:53;3.57;;;1.40;;
13349;SDS011;6744;53.190;6.576;2022-10-16T03:02:18;4.10;;;1.20;;
13349;SDS011;6744;53.190;6.576;2022-10-16T03:04:44;3.97;;;1.20;;
13349;SDS011;6744;53.190;6.576;2022-10-16T03:07:09;5.53;;;1.30;;
13349;SDS011;6744;53.190;6.576;2022-10-16T03:09:35;2.23;;;0.83;;
13349;SDS011;6744;53.190;6.576;2022-10-16T03:12:00;1.70;;;1.03;;
13349;SDS011;6744;53.190;6.576;2022-10-16T03:14:26;2.20;;;1.20;;
13349;SDS011;6744;53.190;6.576;2022-10-16T03:16:51;1.83;;;1.10;;
13349;SDS011;6744;53.190;6.576;2022-10-16T03:19:17;4.03;;;1.10;;
13349;SDS011;6744;53.190;6.576;2022-10-16T03:21:42;3.33;;;1.10;;
13349;SDS011;6744;53.190;6.576;2022-10-16T03:24:08;3.23;;;1.10;;
13349;SDS011;6744;53.190;6.576;2022-10-16T03:26:34;3.03;;;1.30;;
13349;SDS011;6744;53.190;6.576;2022-10-16T03:28:59;3.43;;;1.40;;
13349;SDS011;6744;53.190;6.576;2022-10-16T03:31:24;3.87;;;1.20;;
13349;SDS011;6744;53.190;6.576;2022-10-16T03:33:50;3.40;;;1.23;;
13349;SDS011;6744;53.190;6.576;2022-10-16T03:36:15;2.53;;;1.27;;
13349;SDS011;6744;53.190;6.576;2022-10-16T03:38:40;2.80;;;1.27;;
13349;SDS011;6744;53.190;6.576;2022-10-16T03:41:06;3.07;;;1.20;;
13349;SDS011;6744;53.190;6.576;2022-10-16T03:43:32;3.00;;;1.20;;
13349;SDS011;6744;53.190;6.576;2022-10-16T03:45:58;3.03;;;1.00;;
13349;SDS011;6744;53.190;6.576;2022-10-16T03:48:23;1.50;;;1.30;;
13349;SDS011;6744;53.190;6.576;2022-10-16T03:50:48;2.47;;;1.27;;
13349;SDS011;6744;53.190;6.576;2022-10-16T03:53:15;2.37;;;1.30;;
13349;SDS011;6744;53.190;6.576;2022-10-16T03:55:41;2.30;;;1.30;;
13349;SDS011;6744;53.190;6.576;2022-10-16T03:58:07;3.73;;;1.40;;
13349;SDS011;6744;53.190;6.576;2022-10-16T04:00:32;1.60;;;1.20;;
13349;SDS011;6744;53.190;6.576;2022-10-16T04:02:58;2.63;;;1.27;;
13349;SDS011;6744;53.190;6.576;2022-10-16T04:05:23;3.63;;;1.70;;
13349;SDS011;6744;53.190;6.576;2022-10-16T04:07:49;2.37;;;1.17;;
13349;SDS011;6744;53.190;6.576;2022-10-16T04:10:14;2.60;;;1.27;;
13349;SDS011;6744;53.190;6.576;2022-10-16T04:12:39;2.33;;;1.20;;
13349;SDS011;6744;53.190;6.576;2022-10-16T04:15:05;4.73;;;1.43;;
13349;SDS011;6744;53.190;6.576;2022-10-16T04:17:30;2.20;;;1.20;;
13349;SDS011;6744;53.190;6.576;2022-10-16T04:19:56;2.57;;;1.30;;
13349;SDS011;6744;53.190;6.576;2022-10-16T04:22:21;3.63;;;1.50;;
13349;SDS011;6744;53.190;6.576;2022-10-16T04:24:46;3.23;;;1.43;;
13349;SDS011;6744;53.190;6.576;2022-10-16T04:27:12;1.97;;;1.47;;
13349;SDS011;6744;53.190;6.576;2022-10-16T04:29:37;3.73;;;1.50;;
13349;SDS011;6744;53.190;6.576;2022-10-16T04:32:02;3.90;;;1.33;;
13349;SDS011;6744;53.190;6.576;2022-10-16T04:34:28;1.63;;;1.17;;
13349;SDS011;6744;53.190;6.576;2022-10-16T04:36:53;1.97;;;1.30;;
13349;SDS011;6744;53.190;6.576;2022-10-16T04:39:18;2.03;;;1.00;;
13349;SDS011;6744;53.190;6.576;2022-10-16T04:41:44;2.40;;;1.27;;
13349;SDS011;6744;53.190;6.576;2022-10-16T04:44:09;4.37;;;1.50;;
13349;SDS011;6744;53.190;6.576;2022-10-16T04:46:34;2.93;;;1.40;;
13349;SDS011;6744;53.190;6.576;2022-10-16T04:49:00;2.67;;;1.63;;
13349;SDS011;6744;53.190;6.576;2022-10-16T04:51:25;3.63;;;1.67;;
13349;SDS011;6744;53.190;6.576;2022-10-16T04:53:52;2.70;;;1.40;;
13349;SDS011;6744;53.190;6.576;2022-10-16T04:56:17;2.40;;;1.33;;
13349;SDS011;6744;53.190;6.576;2022-10-16T04:58:43;2.27;;;1.43;;
13349;SDS011;6744;53.190;6.576;2022-10-16T05:01:08;2.53;;;1.50;;
13349;SDS011;6744;53.190;6.576;2022-10-16T05:03:34;5.70;;;1.83;;
13349;SDS011;6744;53.190;6.576;2022-10-16T05:05:59;3.77;;;1.60;;
13349;SDS011;6744;53.190;6.576;2022-10-16T05:08:25;2.93;;;1.60;;
13349;SDS011;6744;53.190;6.576;2022-10-16T05:10:50;4.23;;;1.50;;
13349;SDS011;6744;53.190;6.576;2022-10-16T05:13:16;4.73;;;1.80;;
13349;SDS011;6744;53.190;6.576;2022-10-16T05:15:41;2.03;;;1.20;;
13349;SDS011;6744;53.190;6.576;2022-10-16T05:18:06;4.07;;;1.67;;
13349;SDS011;6744;53.190;6.576;2022-10-16T05:20:32;1.67;;;1.50;;
13349;SDS011;6744;53.190;6.576;2022-10-16T05:22:57;4.70;;;1.60;;
13349;SDS011;6744;53.190;6.576;2022-10-16T05:25:23;2.70;;;1.40;;
13349;SDS011;6744;53.190;6.576;2022-10-16T05:27:49;3.83;;;1.70;;
13349;SDS011;6744;53.190;6.576;2022-10-16T05:30:15;2.83;;;1.67;;
13349;SDS011;6744;53.190;6.576;2022-10-16T05:32:40;4.10;;;1.93;;
13349;SDS011;6744;53.190;6.576;2022-10-16T05:35:06;3.27;;;1.53;;
13349;SDS011;6744;53.190;6.576;2022-10-16T05:37:32;3.40;;;1.60;;
13349;SDS011;6744;53.190;6.576;2022-10-16T05:39:57;3.27;;;1.67;;
13349;SDS011;6744;53.190;6.576;2022-10-16T05:42:23;5.10;;;2.23;;
13349;SDS011;6744;53.190;6.576;2022-10-16T05:44:48;3.93;;;1.70;;
13349;SDS011;6744;53.190;6.576;2022-10-16T05:47:13;2.93;;;1.60;;
13349;SDS011;6744;53.190;6.576;2022-10-16T05:49:39;2.63;;;1.73;;
13349;SDS011;6744;53.190;6.576;2022-10-16T05:52:05;4.00;;;1.90;;
13349;SDS011;6744;53.190;6.576;2022-10-16T05:54:30;2.60;;;1.87;;
13349;SDS011;6744;53.190;6.576;2022-10-16T05:56:55;2.83;;;1.80;;
13349;SDS011;6744;53.190;6.576;2022-10-16T05:59:21;4.17;;;1.90;;
13349;SDS011;6744;53.190;6.576;2022-10-16T06:01:46;4.40;;;1.83;;
13349;SDS011;6744;53.190;6.576;2022-10-16T06:04:12;4.07;;;1.90;;
13349;SDS011;6744;53.190;6.576;2022-10-16T06:06:37;5.13;;;2.00;;
13349;SDS011;6744;53.190;6.576;2022-10-16T06:09:02;2.70;;;1.77;;
13349;SDS011;6744;53.190;6.576;2022-10-16T06:11:29;3.60;;;1.90;;
13349;SDS011;6744;53.190;6.576;2022-10-16T06:13:57;3.97;;;2.10;;
13349;SDS011;6744;53.190;6.576;2022-10-16T06:16:25;3.93;;;2.03;;
13349;SDS011;6744;53.190;6.576;2022-10-16T06:18:51;3.30;;;1.87;;
13349;SDS011;6744;53.190;6.576;2022-10-16T06:21:18;3.00;;;2.00;;
13349;SDS011;6744;53.190;6.576;2022-10-16T06:23:45;4.43;;;2.00;;
13349;SDS011;6744;53.190;6.576;2022-10-16T06:26:11;2.97;;;2.07;;
13349;SDS011;6744;53.190;6.576;2022-10-16T06:28:38;4.90;;;2.60;;
13349;SDS011;6744;53.190;6.576;2022-10-16T06:31:04;5.23;;;2.37;;
13349;SDS011;6744;53.190;6.576;2022-10-16T06:33:30;5.43;;;2.20;;
13349;SDS011;6744;53.190;6.576;2022-10-16T06:36:00;4.50;;;2.10;;
13349;SDS011;6744;53.190;6.576;2022-10-16T06:38:27;2.83;;;1.97;;
13349;SDS011;6744;53.190;6.576;2022-10-16T06:40:53;5.70;;;2.20;;
13349;SDS011;6744;53.190;6.576;2022-10-16T06:43:18;3.23;;;1.70;;
13349;SDS011;6744;53.190;6.576;2022-10-16T06:45:49;4.27;;;2.10;;
13349;SDS011;6744;53.190;6.576;2022-10-16T06:48:18;4.80;;;2.00;;
13349;SDS011;6744;53.190;6.576;2022-10-16T06:50:44;3.37;;;1.93;;
13349;SDS011;6744;53.190;6.576;2022-10-16T06:53:09;5.50;;;2.00;;
13349;SDS011;6744;53.190;6.576;2022-10-16T06:55:34;3.77;;;1.90;;
13349;SDS011;6744;53.190;6.576;2022-10-16T06:58:00;4.03;;;2.23;;
13349;SDS011;6744;53.190;6.576;2022-10-16T07:00:25;4.53;;;1.87;;
13349;SDS011;6744;53.190;6.576;2022-10-16T07:02:50;4.33;;;2.07;;
13349;SDS011;6744;53.190;6.576;2022-10-16T07:05:16;6.67;;;2.37;;
13349;SDS011;6744;53.190;6.576;2022-10-16T07:07:41;5.10;;;1.90;;
13349;SDS011;6744;53.190;6.576;2022-10-16T07:10:07;4.50;;;1.90;;
13349;SDS011;6744;53.190;6.576;2022-10-16T07:12:32;3.83;;;1.53;;
13349;SDS011;6744;53.190;6.576;2022-10-16T07:14:58;4.60;;;2.17;;
13349;SDS011;6744;53.190;6.576;2022-10-16T07:17:23;3.40;;;1.80;;
13349;SDS011;6744;53.190;6.576;2022-10-16T07:19:48;7.00;;;2.00;;
13349;SDS011;6744;53.190;6.576;2022-10-16T07:22:14;4.80;;;1.90;;
13349;SDS011;6744;53.190;6.576;2022-10-16T07:24:39;5.17;;;2.20;;
13349;SDS011;6744;53.190;6.576;2022-10-16T07:27:05;3.63;;;1.83;;
13349;SDS011;6744;53.190;6.576;2022-10-16T07:29:30;3.10;;;2.00;;
13349;SDS011;6744;53.190;6.576;2022-10-16T07:31:55;3.80;;;1.67;;
13349;SDS011;6744;53.190;6.576;2022-10-16T07:34:21;2.93;;;1.83;;
13349;SDS011;6744;53.190;6.576;2022-10-16T07:36:50;3.77;;;2.13;;
13349;SDS011;6744;53.190;6.576;2022-10-16T07:39:15;4.20;;;1.73;;
13349;SDS011;6744;53.190;6.576;2022-10-16T07:41:41;4.07;;;2.33;;
13349;SDS011;6744;53.190;6.576;2022-10-16T07:44:06;3.83;;;2.20;;
13349;SDS011;6744;53.190;6.576;2022-10-16T07:46:32;4.17;;;2.00;;
13349;SDS011;6744;53.190;6.576;2022-10-16T07:48:59;3.00;;;1.80;;
13349;SDS011;6744;53.190;6.576;2022-10-16T07:51:25;4.43;;;2.10;;
13349;SDS011;6744;53.190;6.576;2022-10-16T07:53:50;4.00;;;1.90;;
13349;SDS011;6744;53.190;6.576;2022-10-16T07:56:17;3.97;;;2.03;;
13349;SDS011;6744;53.190;6.576;2022-10-16T07:58:43;3.03;;;2.10;;
13349;SDS011;6744;53.190;6.576;2022-10-16T08:01:10;4.17;;;2.10;;
13349;SDS011;6744;53.190;6.576;2022-10-16T08:03:38;4.60;;;2.10;;
13349;SDS011;6744;53.190;6.576;2022-10-16T08:06:03;5.30;;;2.43;;
13349;SDS011;6744;53.190;6.576;2022-10-16T08:08:29;3.23;;;2.10;;
13349;SDS011;6744;53.190;6.576;2022-10-16T08:10:55;4.87;;;2.30;;
13349;SDS011;6744;53.190;6.576;2022-10-16T08:13:20;4.30;;;1.90;;
13349;SDS011;6744;53.190;6.576;2022-10-16T08:15:46;3.30;;;2.03;;
13349;SDS011;6744;53.190;6.576;2022-10-16T08:18:12;4.33;;;2.10;;
13349;SDS011;6744;53.190;6.576;2022-10-16T08:20:39;2.87;;;1.80;;
13349;SDS011;6744;53.190;6.576;2022-10-16T08:23:05;2.90;;;1.53;;
13349;SDS011;6744;53.190;6.576;2022-10-16T08:25:31;3.77;;;1.70;;
13349;SDS011;6744;53.190;6.576;2022-10-16T08:27:59;5.10;;;1.73;;
13349;SDS011;6744;53.190;6.576;2022-10-16T08:30:24;3.93;;;1.47;;
13349;SDS011;6744;53.190;6.576;2022-10-16T08:32:50;3.10;;;1.70;;
13349;SDS011;6744;53.190;6.576;2022-10-16T08:35:15;3.77;;;1.50;;
13349;SDS011;6744;53.190;6.576;2022-10-16T08:37:41;4.70;;;1.60;;
13349;SDS011;6744;53.190;6.576;2022-10-16T08:40:07;4.83;;;1.50;;
13349;SDS011;6744;53.190;6.576;2022-10-16T08:50:39;3.83;;;1.60;;
13349;SDS011;6744;53.190;6.576;2022-10-16T08:53:05;3.73;;;1.30;;
13349;SDS011;6744;53.190;6.576;2022-10-16T08:55:37;5.80;;;1.37;;
13349;SDS011;6744;53.190;6.576;2022-10-16T08:58:10;5.03;;;1.40;;
13349;SDS011;6744;53.190;6.576;2022-10-16T09:00:38;5.23;;;1.50;;
13349;SDS011;6744;53.190;6.576;2022-10-16T09:05:45;3.67;;;1.33;;
13349;SDS011;6744;53.190;6.576;2022-10-16T09:11:18;5.80;;;1.50;;
13349;SDS011;6744;53.190;6.576;2022-10-16T09:14:10;5.00;;;1.30;;
13349;SDS011;6744;53.190;6.576;2022-10-16T09:16:46;3.67;;;1.20;;
13349;SDS011;6744;53.190;6.576;2022-10-16T09:19:17;3.43;;;1.50;;
13349;SDS011;6744;53.190;6.576;2022-10-16T09:21:48;4.00;;;1.20;;
13349;SDS011;6744;53.190;6.576;2022-10-16T09:24:14;5.10;;;1.50;;
13349;SDS011;6744;53.190;6.576;2022-10-16T09:26:41;4.43;;;1.40;;
13349;SDS011;6744;53.190;6.576;2022-10-16T09:29:08;4.03;;;1.40;;
13349;SDS011;6744;53.190;6.576;2022-10-16T09:31:37;6.27;;;1.73;;
13349;SDS011;6744;53.190;6.576;2022-10-16T09:34:02;7.37;;;1.73;;
13349;SDS011;6744;53.190;6.576;2022-10-16T09:36:39;4.47;;;1.70;;
13349;SDS011;6744;53.190;6.576;2022-10-16T09:39:07;7.27;;;1.70;;
13349;SDS011;6744;53.190;6.576;2022-10-16T09:41:34;4.93;;;1.27;;
13349;SDS011;6744;53.190;6.576;2022-10-16T09:44:01;9.23;;;2.30;;
13349;SDS011;6744;53.190;6.576;2022-10-16T09:48:58;5.93;;;1.73;;
13349;SDS011;6744;53.190;6.576;2022-10-16T09:51:29;7.17;;;1.43;;
13349;SDS011;6744;53.190;6.576;2022-10-16T09:54:14;4.80;;;2.17;;
13349;SDS011;6744;53.190;6.576;2022-10-16T09:56:41;7.23;;;1.73;;
13349;SDS011;6744;53.190;6.576;2022-10-16T09:59:17;6.73;;;2.20;;
13349;SDS011;6744;53.190;6.576;2022-10-16T10:01:48;8.10;;;2.00;;
13349;SDS011;6744;53.190;6.576;2022-10-16T10:04:18;5.63;;;1.67;;
13349;SDS011;6744;53.190;6.576;2022-10-16T10:06:45;7.10;;;1.90;;
13349;SDS011;6744;53.190;6.576;2022-10-16T10:11:51;6.90;;;2.00;;
13349;SDS011;6744;53.190;6.576;2022-10-16T10:16:50;8.87;;;1.90;;
13349;SDS011;6744;53.190;6.576;2022-10-16T10:19:17;6.33;;;1.80;;
13349;SDS011;6744;53.190;6.576;2022-10-16T10:21:44;6.67;;;2.03;;
13349;SDS011;6744;53.190;6.576;2022-10-16T10:24:11;9.00;;;2.17;;
13349;SDS011;6744;53.190;6.576;2022-10-16T10:26:43;6.40;;;2.00;;
13349;SDS011;6744;53.190;6.576;2022-10-16T10:29:16;5.00;;;1.70;;
13349;SDS011;6744;53.190;6.576;2022-10-16T10:39:52;10.03;;;2.30;;
13349;SDS011;6744;53.190;6.576;2022-10-16T10:42:28;8.70;;;2.00;;
13349;SDS011;6744;53.190;6.576;2022-10-16T10:50:27;7.47;;;2.30;;
13349;SDS011;6744;53.190;6.576;2022-10-16T10:53:18;7.83;;;1.97;;
13349;SDS011;6744;53.190;6.576;2022-10-16T10:55:49;10.97;;;2.10;;
13349;SDS011;6744;53.190;6.576;2022-10-16T11:06:50;8.90;;;1.90;;
13349;SDS011;6744;53.190;6.576;2022-10-16T11:09:21;8.90;;;2.30;;
13349;SDS011;6744;53.190;6.576;2022-10-16T11:11:51;8.63;;;2.03;;
13349;SDS011;6744;53.190;6.576;2022-10-16T11:14:39;6.40;;;2.00;;
13349;SDS011;6744;53.190;6.576;2022-10-16T11:17:08;6.63;;;1.80;;
13349;SDS011;6744;53.190;6.576;2022-10-16T11:22:49;7.63;;;2.00;;
13349;SDS011;6744;53.190;6.576;2022-10-16T11:25:21;6.10;;;1.83;;
13349;SDS011;6744;53.190;6.576;2022-10-16T11:30:24;7.03;;;2.13;;
13349;SDS011;6744;53.190;6.576;2022-10-16T11:41:33;10.20;;;2.17;;
13349;SDS011;6744;53.190;6.576;2022-10-16T11:46:29;6.30;;;1.70;;
13349;SDS011;6744;53.190;6.576;2022-10-16T11:48:58;9.77;;;2.30;;
13349;SDS011;6744;53.190;6.576;2022-10-16T11:51:36;8.00;;;2.00;;
13349;SDS011;6744;53.190;6.576;2022-10-16T11:57:15;10.50;;;2.27;;
13349;SDS011;6744;53.190;6.576;2022-10-16T11:59:46;5.50;;;1.73;;
13349;SDS011;6744;53.190;6.576;2022-10-16T12:05:13;8.53;;;2.20;;
13349;SDS011;6744;53.190;6.576;2022-10-16T12:07:47;10.00;;;2.07;;
13349;SDS011;6744;53.190;6.576;2022-10-16T12:10:23;9.10;;;2.33;;
13349;SDS011;6744;53.190;6.576;2022-10-16T12:12:52;7.53;;;2.03;;
13349;SDS011;6744;53.190;6.576;2022-10-16T12:15:22;9.53;;;2.00;;
13349;SDS011;6744;53.190;6.576;2022-10-16T12:17:52;9.57;;;2.13;;
13349;SDS011;6744;53.190;6.576;2022-10-16T12:20:22;6.93;;;2.23;;
13349;SDS011;6744;53.190;6.576;2022-10-16T12:22:54;7.47;;;2.20;;
13349;SDS011;6744;53.190;6.576;2022-10-16T12:25:22;7.60;;;2.13;;
13349;SDS011;6744;53.190;6.576;2022-10-16T12:27:54;9.13;;;1.73;;
13349;SDS011;6744;53.190;6.576;2022-10-16T12:30:24;9.23;;;2.13;;
13349;SDS011;6744;53.190;6.576;2022-10-16T12:32:58;8.20;;;2.13;;
13349;SDS011;6744;53.190;6.576;2022-10-16T12:35:27;11.13;;;2.27;;
13349;SDS011;6744;53.190;6.576;2022-10-16T12:38:04;10.23;;;2.13;;
13349;SDS011;6744;53.190;6.576;2022-10-16T12:40:31;6.17;;;1.97;;
13349;SDS011;6744;53.190;6.576;2022-10-16T12:42:58;9.77;;;2.20;;
13349;SDS011;6744;53.190;6.576;2022-10-16T12:45:30;6.53;;;2.00;;
13349;SDS011;6744;53.190;6.576;2022-10-16T12:47:58;9.63;;;2.20;;
13349;SDS011;6744;53.190;6.576;2022-10-16T12:50:32;9.60;;;2.23;;
13349;SDS011;6744;53.190;6.576;2022-10-16T12:52:59;11.17;;;2.47;;
13349;SDS011;6744;53.190;6.576;2022-10-16T12:55:26;7.30;;;1.97;;
13349;SDS011;6744;53.190;6.576;2022-10-16T13:03:02;8.23;;;1.80;;
13349;SDS011;6744;53.190;6.576;2022-10-16T13:06:00;8.37;;;2.20;;
13349;SDS011;6744;53.190;6.576;2022-10-16T13:13:50;7.60;;;1.93;;
13349;SDS011;6744;53.190;6.576;2022-10-16T13:19:09;7.90;;;2.00;;
13349;SDS011;6744;53.190;6.576;2022-10-16T13:27:53;5.07;;;1.73;;
13349;SDS011;6744;53.190;6.576;2022-10-16T13:30:21;6.13;;;1.90;;
13349;SDS011;6744;53.190;6.576;2022-10-16T13:32:50;7.80;;;1.97;;
13349;SDS011;6744;53.190;6.576;2022-10-16T13:35:24;6.30;;;1.50;;
13349;SDS011;6744;53.190;6.576;2022-10-16T13:38:04;9.10;;;2.20;;
13349;SDS011;6744;53.190;6.576;2022-10-16T13:43:28;8.67;;;2.00;;
13349;SDS011;6744;53.190;6.576;2022-10-16T13:45:58;10.23;;;2.23;;
13349;SDS011;6744;53.190;6.576;2022-10-16T13:48:29;9.70;;;2.30;;
13349;SDS011;6744;53.190;6.576;2022-10-16T13:51:02;6.97;;;1.87;;
13349;SDS011;6744;53.190;6.576;2022-10-16T13:53:31;7.37;;;2.20;;
13349;SDS011;6744;53.190;6.576;2022-10-16T13:56:01;7.37;;;2.00;;
13349;SDS011;6744;53.190;6.576;2022-10-16T13:58:28;8.00;;;2.10;;
13349;SDS011;6744;53.190;6.576;2022-10-16T14:00:54;6.20;;;1.80;;
13349;SDS011;6744;53.190;6.576;2022-10-16T14:03:20;7.47;;;1.83;;
13349;SDS011;6744;53.190;6.576;2022-10-16T14:05:47;7.93;;;2.00;;
13349;SDS011;6744;53.190;6.576;2022-10-16T14:08:13;6.97;;;2.13;;
13349;SDS011;6744;53.190;6.576;2022-10-16T14:10:39;9.63;;;2.13;;
13349;SDS011;6744;53.190;6.576;2022-10-16T14:13:05;9.73;;;2.33;;
13349;SDS011;6744;53.190;6.576;2022-10-16T14:15:32;8.13;;;2.03;;
13349;SDS011;6744;53.190;6.576;2022-10-16T14:17:58;7.20;;;2.30;;
13349;SDS011;6744;53.190;6.576;2022-10-16T14:20:25;7.47;;;2.07;;
13349;SDS011;6744;53.190;6.576;2022-10-16T14:23:00;6.80;;;1.90;;
13349;SDS011;6744;53.190;6.576;2022-10-16T14:25:30;8.20;;;2.10;;
13349;SDS011;6744;53.190;6.576;2022-10-16T14:28:01;7.67;;;2.03;;
13349;SDS011;6744;53.190;6.576;2022-10-16T14:30:30;9.70;;;2.23;;
13349;SDS011;6744;53.190;6.576;2022-10-16T14:32:58;8.93;;;2.23;;
13349;SDS011;6744;53.190;6.576;2022-10-16T14:35:27;10.57;;;2.00;;
13349;SDS011;6744;53.190;6.576;2022-10-16T14:37:54;8.00;;;2.13;;
13349;SDS011;6744;53.190;6.576;2022-10-16T14:40:31;7.97;;;2.30;;
13349;SDS011;6744;53.190;6.576;2022-10-16T14:42:58;7.73;;;1.93;;
13349;SDS011;6744;53.190;6.576;2022-10-16T14:45:25;8.17;;;1.93;;
13349;SDS011;6744;53.190;6.576;2022-10-16T14:47:57;8.67;;;2.47;;
13349;SDS011;6744;53.190;6.576;2022-10-16T14:50:24;6.17;;;2.07;;
13349;SDS011;6744;53.190;6.576;2022-10-16T14:52:49;5.47;;;1.70;;
13349;SDS011;6744;53.190;6.576;2022-10-16T14:55:14;5.27;;;1.80;;
13349;SDS011;6744;53.190;6.576;2022-10-16T14:57:40;7.37;;;1.80;;
13349;SDS011;6744;53.190;6.576;2022-10-16T15:00:27;7.10;;;1.67;;
13349;SDS011;6744;53.190;6.576;2022-10-16T15:02:51;9.33;;;2.07;;
13349;SDS011;6744;53.190;6.576;2022-10-16T15:07:43;6.23;;;1.87;;
13349;SDS011;6744;53.190;6.576;2022-10-16T15:10:10;5.87;;;1.80;;
13349;SDS011;6744;53.190;6.576;2022-10-16T15:26:07;4.83;;;1.67;;
13349;SDS011;6744;53.190;6.576;2022-10-16T15:28:33;4.17;;;1.53;;
13349;SDS011;6744;53.190;6.576;2022-10-16T15:30:58;3.67;;;1.63;;
13349;SDS011;6744;53.190;6.576;2022-10-16T15:33:24;5.27;;;1.57;;
13349;SDS011;6744;53.190;6.576;2022-10-16T15:35:52;4.97;;;1.70;;
13349;SDS011;6744;53.190;6.576;2022-10-16T15:38:18;5.73;;;1.50;;
13349;SDS011;6744;53.190;6.576;2022-10-16T15:40:45;5.47;;;1.70;;
13349;SDS011;6744;53.190;6.576;2022-10-16T15:43:11;4.60;;;1.67;;
13349;SDS011;6744;53.190;6.576;2022-10-16T15:45:36;8.43;;;3.30;;
13349;SDS011;6744;53.190;6.576;2022-10-16T15:48:02;8.03;;;2.20;;
13349;SDS011;6744;53.190;6.576;2022-10-16T15:50:28;7.43;;;1.63;;
13349;SDS011;6744;53.190;6.576;2022-10-16T15:52:55;3.97;;;1.50;;
13349;SDS011;6744;53.190;6.576;2022-10-16T15:55:20;5.50;;;1.70;;
13349;SDS011;6744;53.190;6.576;2022-10-16T15:57:45;6.13;;;1.97;;
13349;SDS011;6744;53.190;6.576;2022-10-16T16:00:12;4.17;;;1.60;;
13349;SDS011;6744;53.190;6.576;2022-10-16T16:02:42;4.43;;;1.60;;
13349;SDS011;6744;53.190;6.576;2022-10-16T16:05:09;5.70;;;1.87;;
13349;SDS011;6744;53.190;6.576;2022-10-16T16:07:35;4.50;;;1.80;;
13349;SDS011;6744;53.190;6.576;2022-10-16T16:10:02;3.17;;;1.27;;
13349;SDS011;6744;53.190;6.576;2022-10-16T16:12:28;4.97;;;1.63;;
13349;SDS011;6744;53.190;6.576;2022-10-16T16:14:54;4.13;;;1.50;;
13349;SDS011;6744;53.190;6.576;2022-10-16T16:17:19;2.57;;;1.03;;
13349;SDS011;6744;53.190;6.576;2022-10-16T16:19:45;3.70;;;1.60;;
13349;SDS011;6744;53.190;6.576;2022-10-16T16:22:11;4.97;;;1.80;;
13349;SDS011;6744;53.190;6.576;2022-10-16T16:24:36;5.57;;;1.63;;
13349;SDS011;6744;53.190;6.576;2022-10-16T16:27:01;4.87;;;1.77;;
13349;SDS011;6744;53.190;6.576;2022-10-16T16:29:27;5.40;;;2.57;;
13349;SDS011;6744;53.190;6.576;2022-10-16T16:31:52;8.83;;;2.97;;
13349;SDS011;6744;53.190;6.576;2022-10-16T16:34:22;7.17;;;3.20;;
13349;SDS011;6744;53.190;6.576;2022-10-16T16:36:49;5.33;;;3.00;;
13349;SDS011;6744;53.190;6.576;2022-10-16T16:39:15;6.87;;;4.00;;
13349;SDS011;6744;53.190;6.576;2022-10-16T16:41:40;8.13;;;4.27;;
13349;SDS011;6744;53.190;6.576;2022-10-16T16:44:06;7.93;;;4.37;;
13349;SDS011;6744;53.190;6.576;2022-10-16T16:46:34;7.83;;;4.63;;
13349;SDS011;6744;53.190;6.576;2022-10-16T16:48:59;10.33;;;4.90;;
13349;SDS011;6744;53.190;6.576;2022-10-16T16:51:25;9.17;;;5.10;;
13349;SDS011;6744;53.190;6.576;2022-10-16T16:53:52;8.90;;;5.10;;
13349;SDS011;6744;53.190;6.576;2022-10-16T16:56:18;8.50;;;4.87;;
13349;SDS011;6744;53.190;6.576;2022-10-16T16:58:45;9.93;;;4.50;;
13349;SDS011;6744;53.190;6.576;2022-10-16T17:01:11;7.23;;;4.10;;
13349;SDS011;6744;53.190;6.576;2022-10-16T17:03:36;8.93;;;3.50;;